createdAt,value
2019-04-29T00:00:30.032Z,95336.19
2019-04-29T00:02:56.154Z,95332.50
2019-04-29T00:05:22.474Z,95336.19
2019-04-29T00:07:48.486Z,95328.37
2019-04-29T00:10:18.627Z,95327.94
2019-04-29T00:12:44.743Z,95332.73
2019-04-29T00:15:16.178Z,95326.12
2019-04-29T00:17:46.923Z,95333.23
2019-04-29T00:20:14.959Z,95328.98
2019-04-29T00:22:41.097Z,95331.02
2019-04-29T00:25:07.437Z,95322.70
2019-04-29T00:27:33.557Z,95327.55
2019-04-29T00:29:59.735Z,95327.05
2019-04-29T00:32:26.083Z,95327.55
2019-04-29T00:34:52.220Z,95327.27
2019-04-29T00:37:29.173Z,95321.77
2019-04-29T00:40:13.679Z,95326.34
2019-04-29T00:42:47.405Z,95321.17
2019-04-29T00:45:13.743Z,95320.34
2019-04-29T00:47:39.856Z,95320.34
2019-04-29T00:50:06.077Z,95317.42
2019-04-29T00:52:32.323Z,95320.34
2019-04-29T00:55:00.278Z,95318.14
2019-04-29T00:57:26.202Z,95320.88
2019-04-29T00:59:52.335Z,95317.86
2019-04-29T01:02:18.618Z,95314.90
2019-04-29T01:04:44.757Z,95313.39
2019-04-29T01:07:11.081Z,95311.75
2019-04-29T01:09:37.705Z,95311.70
2019-04-29T01:12:05.087Z,95313.89
2019-04-29T01:14:31.206Z,95309.50
2019-04-29T01:16:57.389Z,95308.06
2019-04-29T01:19:23.633Z,95310.98
2019-04-29T01:21:49.744Z,95312.67
2019-04-29T01:24:15.851Z,95310.39
2019-04-29T01:26:46.571Z,95309.98
2019-04-29T01:29:14.595Z,95310.87
2019-04-29T01:31:40.935Z,95310.65
2019-04-29T01:34:11.764Z,95309.98
2019-04-29T01:36:39.849Z,95311.30
2019-04-29T01:39:07.864Z,95306.59
2019-04-29T01:44:18.312Z,95307.55
2019-04-29T01:46:44.436Z,95299.09
2019-04-29T01:49:10.551Z,95299.98
2019-04-29T01:51:36.734Z,95301.30
2019-04-29T01:54:03.063Z,95306.59
2019-04-29T01:56:29.100Z,95295.52
2019-04-29T01:58:55.222Z,95302.50
2019-04-29T02:01:21.395Z,95296.50
2019-04-29T02:03:47.782Z,95292.31
2019-04-29T02:06:13.914Z,95297.00
2019-04-29T02:08:40.152Z,95295.73
2019-04-29T02:11:06.276Z,95297.66
2019-04-29T02:13:32.555Z,95302.81
2019-04-29T02:15:58.669Z,95289.39
2019-04-29T02:18:24.801Z,95296.88
2019-04-29T02:20:50.912Z,95295.05
2019-04-29T02:23:18.834Z,95292.31
2019-04-29T02:25:46.762Z,95288.73
2019-04-29T02:28:12.877Z,95285.96
2019-04-29T02:30:41.202Z,95285.42
2019-04-29T02:33:07.320Z,95284.39
2019-04-29T02:35:33.577Z,95280.80
2019-04-29T02:38:00.004Z,95286.38
2019-04-29T02:43:20.964Z,95281.84
2019-04-29T02:45:47.180Z,95279.60
2019-04-29T02:48:13.313Z,95276.80
2019-04-29T02:50:39.436Z,95273.15
2019-04-29T02:53:05.563Z,95272.49
2019-04-29T02:55:33.573Z,95266.39
2019-04-29T03:00:45.173Z,95264.78
2019-04-29T03:03:25.036Z,95259.78
2019-04-29T03:05:55.943Z,95260.81
2019-04-29T03:08:22.941Z,95257.45
2019-04-29T03:10:49.061Z,95263.23
2019-04-29T03:13:15.194Z,95261.42
2019-04-29T03:15:41.621Z,95261.48
2019-04-29T03:18:07.741Z,95260.37
2019-04-29T03:20:35.773Z,95260.16
2019-04-29T03:25:47.420Z,95262.14
2019-04-29T03:28:13.702Z,95260.94
2019-04-29T03:30:39.834Z,95259.77
2019-04-29T03:33:06.022Z,95258.95
2019-04-29T03:35:32.221Z,95262.48
2019-04-29T03:37:58.411Z,95260.05
2019-04-29T03:40:24.631Z,95258.58
2019-04-29T03:42:50.796Z,95262.76
2019-04-29T03:45:16.866Z,95261.05
2019-04-29T03:47:42.998Z,95262.76
2019-04-29T03:50:09.152Z,95257.09
2019-04-29T03:52:35.161Z,95259.28
2019-04-29T03:55:01.287Z,95262.81
2019-04-29T03:57:29.318Z,95259.23
2019-04-29T03:59:57.102Z,95259.45
2019-04-29T04:02:25.042Z,95267.77
2019-04-29T04:04:52.864Z,95261.03
2019-04-29T04:07:29.720Z,95264.06
2019-04-29T04:09:55.909Z,95259.66
2019-04-29T04:12:22.021Z,95261.70
2019-04-29T04:14:48.162Z,95260.69
2019-04-29T04:17:20.611Z,95267.59
2019-04-29T04:19:47.619Z,95271.11
2019-04-29T04:22:13.806Z,95264.66
2019-04-29T04:24:39.927Z,95258.66
2019-04-29T04:27:05.945Z,95262.48
2019-04-29T04:29:32.074Z,95254.56
2019-04-29T04:31:58.201Z,95264.19
2019-04-29T04:34:24.211Z,95262.93
2019-04-29T04:36:50.360Z,95270.42
2019-04-29T04:39:16.366Z,95273.66
2019-04-29T04:41:42.381Z,95273.98
2019-04-29T04:44:08.565Z,95273.22
2019-04-29T04:46:34.683Z,95264.28
2019-04-29T04:49:00.822Z,95273.59
2019-04-29T04:51:26.941Z,95272.88
2019-04-29T04:53:53.049Z,95274.70
2019-04-29T04:56:19.171Z,95271.64
2019-04-29T04:58:45.345Z,95274.28
2019-04-29T05:01:11.564Z,95275.61
2019-04-29T05:03:37.586Z,95270.00
2019-04-29T05:06:03.777Z,95271.70
2019-04-29T05:08:30.049Z,95271.70
2019-04-29T05:10:56.073Z,95268.05
2019-04-29T05:13:28.327Z,95269.66
2019-04-29T05:15:50.123Z,95269.75
2019-04-29T05:18:16.279Z,95274.59
2019-04-29T05:20:42.399Z,95271.78
2019-04-29T05:23:08.488Z,95272.38
2019-04-29T05:25:34.607Z,95269.45
2019-04-29T05:28:01.106Z,95275.63
2019-04-29T05:30:27.242Z,95268.50
2019-04-29T05:32:53.271Z,95267.02
2019-04-29T05:35:40.263Z,95271.08
2019-04-29T05:38:19.681Z,95263.42
2019-04-29T05:40:47.622Z,95272.27
2019-04-29T05:43:15.647Z,95270.05
2019-04-29T05:46:00.372Z,95269.59
2019-04-29T05:48:27.554Z,95266.00
2019-04-29T05:50:56.456Z,95272.92
2019-04-29T05:53:24.682Z,95275.63
2019-04-29T05:55:52.572Z,95275.13
2019-04-29T05:58:18.833Z,95273.13
2019-04-29T06:00:46.873Z,95273.41
2019-04-29T06:03:13.207Z,95276.37
2019-04-29T06:05:39.347Z,95275.33
2019-04-29T06:08:05.490Z,95277.02
2019-04-29T06:10:31.672Z,95277.61
2019-04-29T06:12:57.855Z,95277.89
2019-04-29T06:15:24.020Z,95280.17
2019-04-29T06:17:50.037Z,95275.25
2019-04-29T06:20:17.539Z,95278.27
2019-04-29T06:22:44.248Z,95265.53
2019-04-29T06:25:10.570Z,95277.39
2019-04-29T06:27:36.762Z,95275.61
2019-04-29T06:30:05.512Z,95281.78
2019-04-29T06:32:31.611Z,95278.17
2019-04-29T06:34:57.809Z,95285.16
2019-04-29T06:37:23.940Z,95280.77
2019-04-29T06:39:50.121Z,95279.94
2019-04-29T06:42:19.585Z,95286.93
2019-04-29T06:44:48.857Z,95287.80
2019-04-29T06:47:12.391Z,95287.38
2019-04-29T06:49:38.535Z,95288.24
2019-04-29T06:52:04.655Z,95291.77
2019-04-29T06:54:30.799Z,95291.31
2019-04-29T06:56:56.905Z,95295.09
2019-04-29T06:59:23.018Z,95295.14
2019-04-29T07:01:49.031Z,95295.42
2019-04-29T07:04:15.061Z,95299.98
2019-04-29T07:06:41.246Z,95301.39
2019-04-29T07:09:07.395Z,95295.35
2019-04-29T07:11:36.542Z,95295.91
2019-04-29T07:14:01.549Z,95299.38
2019-04-29T07:16:31.793Z,95295.71
2019-04-29T07:18:55.718Z,95299.23
2019-04-29T07:21:22.475Z,95290.23
2019-04-29T07:23:48.587Z,95296.13
2019-04-29T07:26:14.608Z,95297.16
2019-04-29T07:28:40.754Z,95295.38
2019-04-29T07:31:09.880Z,95290.67
2019-04-29T07:33:34.945Z,95304.79
2019-04-29T07:36:10.734Z,95296.89
2019-04-29T07:38:40.714Z,95292.25
2019-04-29T07:40:57.147Z,95298.11
2019-04-29T07:43:23.258Z,95302.67
2019-04-29T07:45:54.213Z,95307.31
2019-04-29T07:48:20.443Z,95302.30
2019-04-29T07:50:46.642Z,95297.86
2019-04-29T07:53:13.667Z,95296.30
2019-04-29T07:55:39.789Z,95301.25
2019-04-29T07:58:06.057Z,95299.72
2019-04-29T08:00:35.503Z,95301.91
2019-04-29T08:03:04.363Z,95300.98
2019-04-29T08:05:30.617Z,95297.87
2019-04-29T08:07:58.436Z,95300.88
2019-04-29T08:10:28.640Z,95302.52
2019-04-29T08:12:53.604Z,95301.19
2019-04-29T08:15:19.787Z,95297.83
2019-04-29T08:17:45.900Z,95302.19
2019-04-29T08:20:15.528Z,95302.27
2019-04-29T08:22:41.655Z,95299.78
2019-04-29T08:25:08.092Z,95299.39
2019-04-29T08:27:40.770Z,95298.19
2019-04-29T08:30:06.714Z,95304.90
2019-04-29T08:32:36.365Z,95300.27
2019-04-29T08:35:03.222Z,95303.34
2019-04-29T08:37:28.734Z,95308.77
2019-04-29T08:40:14.822Z,95305.65
2019-04-29T08:42:41.894Z,95304.09
2019-04-29T08:45:27.842Z,95307.05
2019-04-29T08:47:54.067Z,95300.92
2019-04-29T08:50:20.326Z,95299.44
2019-04-29T08:52:46.448Z,95299.78
2019-04-29T08:55:12.865Z,95306.23
2019-04-29T08:57:39.133Z,95314.70
2019-04-29T09:00:07.761Z,95312.52
2019-04-29T09:02:35.564Z,95312.13
2019-04-29T09:05:06.716Z,95310.91
2019-04-29T09:07:32.107Z,95305.44
2019-04-29T09:10:01.770Z,95307.66
2019-04-29T09:12:29.444Z,95307.50
2019-04-29T09:14:54.604Z,95301.78
2019-04-29T09:17:21.005Z,95299.55
2019-04-29T09:19:47.124Z,95303.12
2019-04-29T09:22:17.952Z,95309.29
2019-04-29T09:25:02.349Z,95305.78
2019-04-29T09:27:28.537Z,95304.63
2019-04-29T09:29:58.722Z,95299.89
2019-04-29T09:32:22.658Z,95305.89
2019-04-29T09:34:48.811Z,95299.83
2019-04-29T09:37:18.593Z,95308.03
2019-04-29T09:39:44.788Z,95299.99
2019-04-29T09:42:14.599Z,95301.28
2019-04-29T09:45:00.500Z,95303.61
2019-04-29T09:47:27.113Z,95301.53
2019-04-29T09:49:53.224Z,95297.27
2019-04-29T09:52:19.337Z,95300.20
2019-04-29T09:54:45.498Z,95298.47
2019-04-29T09:57:11.663Z,95300.41
2019-04-29T09:59:42.262Z,95294.92
2019-04-29T10:02:16.415Z,95293.53
2019-04-29T10:04:55.950Z,95294.17
2019-04-29T10:07:13.475Z,95293.12
2019-04-29T10:09:39.597Z,95298.33
2019-04-29T10:12:05.945Z,95297.14
2019-04-29T10:14:32.055Z,95299.28
2019-04-29T10:17:00.089Z,95298.81
2019-04-29T10:19:40.402Z,95300.81
2019-04-29T10:22:06.619Z,95301.47
2019-04-29T10:24:32.852Z,95302.92
2019-04-29T10:26:59.183Z,95307.05
2019-04-29T10:29:27.213Z,95298.56
2019-04-29T10:31:53.557Z,95301.22
2019-04-29T10:34:20.172Z,95300.47
2019-04-29T10:36:46.317Z,95294.75
2019-04-29T10:42:11.657Z,95298.60
2019-04-29T10:44:39.784Z,95305.82
2019-04-29T10:50:02.050Z,95299.55
2019-04-29T10:52:28.785Z,95312.33
2019-04-29T10:54:56.521Z,95305.52
2019-04-29T10:57:23.348Z,95309.38
2019-04-29T10:59:51.588Z,95313.28
2019-04-29T11:02:19.615Z,95311.72
2019-04-29T11:04:47.689Z,95314.07
2019-04-29T11:07:27.871Z,95310.28
2019-04-29T11:09:55.929Z,95316.73
2019-04-29T11:12:22.096Z,95316.69
2019-04-29T11:14:48.239Z,95315.13
2019-04-29T11:17:16.730Z,95312.63
2019-04-29T11:19:42.538Z,95314.31
2019-04-29T11:22:09.401Z,95317.78
2019-04-29T11:24:49.277Z,95323.48
2019-04-29T11:27:17.310Z,95319.73
2019-04-29T11:29:43.555Z,95325.12
2019-04-29T11:32:11.788Z,95316.17
2019-04-29T11:34:39.839Z,95319.84
2019-04-29T11:37:07.876Z,95313.45
2019-04-29T11:39:34.081Z,95321.92
2019-04-29T11:42:01.600Z,95320.94
2019-04-29T11:44:28.083Z,95324.25
2019-04-29T11:46:54.262Z,95325.89
2019-04-29T11:49:22.283Z,95326.48
2019-04-29T11:52:08.599Z,95320.44
2019-04-29T11:54:18.053Z,95323.67
2019-04-29T11:56:44.508Z,95323.67
2019-04-29T11:59:18.605Z,95320.15
2019-04-29T12:04:37.477Z,95314.60
2019-04-29T12:07:03.701Z,95315.86
2019-04-29T12:09:30.894Z,95318.82
2019-04-29T12:11:57.965Z,95311.20
2019-04-29T12:14:26.067Z,95317.53
2019-04-29T12:16:54.870Z,95312.64
2019-04-29T12:19:23.140Z,95317.00
2019-04-29T12:21:49.271Z,95315.57
2019-04-29T12:24:15.590Z,95303.63
2019-04-29T12:26:44.286Z,95307.58
2019-04-29T12:29:13.769Z,95307.00
2019-04-29T12:31:56.544Z,95312.03
2019-04-29T12:34:41.227Z,95309.68
2019-04-29T12:37:09.310Z,95308.08
2019-04-29T12:39:44.885Z,95311.97
2019-04-29T12:42:26.890Z,95307.81
2019-04-29T12:45:00.721Z,95304.73
2019-04-29T12:47:28.743Z,95303.94
2019-04-29T12:49:54.885Z,95300.84
2019-04-29T12:52:21.218Z,95298.78
2019-04-29T12:54:47.735Z,95297.82
2019-04-29T12:57:13.840Z,95292.72
2019-04-29T12:59:40.035Z,95287.64
2019-04-29T13:02:14.293Z,95290.25
2019-04-29T13:04:49.776Z,95288.73
2019-04-29T13:07:15.477Z,95289.52
2019-04-29T13:09:49.220Z,95293.03
2019-04-29T13:12:19.726Z,95286.91
2019-04-29T13:15:02.234Z,95281.77
2019-04-29T13:17:39.779Z,95290.37
2019-04-29T13:20:11.855Z,95289.91
2019-04-29T13:22:35.931Z,95290.31
2019-04-29T13:25:03.591Z,95287.82
2019-04-29T13:27:29.755Z,95285.94
2019-04-29T13:29:55.880Z,95286.61
2019-04-29T13:32:25.337Z,95288.59
2019-04-29T13:34:50.944Z,95286.84
2019-04-29T13:37:19.004Z,95285.07
2019-04-29T13:39:45.345Z,95284.44
2019-04-29T13:42:15.598Z,95285.41
2019-04-29T13:44:50.449Z,95279.34
2019-04-29T13:47:29.348Z,95284.19
2019-04-29T13:50:17.016Z,95281.80
2019-04-29T13:52:28.504Z,95285.27
2019-04-29T13:54:54.743Z,95282.96
2019-04-29T13:57:20.958Z,95279.87
2019-04-29T13:59:50.335Z,95282.11
2019-04-29T14:02:31.247Z,95285.98
2019-04-29T14:04:55.949Z,95278.88
2019-04-29T14:07:22.137Z,95277.07
2019-04-29T14:09:48.293Z,95277.79
2019-04-29T14:12:47.129Z,95272.41
2019-04-29T14:14:42.603Z,95273.64
2019-04-29T14:17:25.252Z,95274.73
2019-04-29T14:19:42.467Z,95271.80
2019-04-29T14:22:05.917Z,95273.95
2019-04-29T14:24:32.050Z,95277.80
2019-04-29T14:26:58.335Z,95275.65
2019-04-29T14:29:28.175Z,95272.72
2019-04-29T14:31:59.192Z,95265.23
2019-04-29T14:34:41.918Z,95266.35
2019-04-29T14:37:21.432Z,95263.52
2019-04-29T14:39:37.657Z,95272.14
2019-04-29T14:45:04.900Z,95272.24
2019-04-29T14:47:32.720Z,95271.49
2019-04-29T14:50:00.744Z,95270.84
2019-04-29T14:52:26.870Z,95275.95
2019-04-29T14:54:53.025Z,95272.72
2019-04-29T14:57:19.168Z,95273.64
2019-04-29T14:59:45.424Z,95267.75
2019-04-29T15:02:17.368Z,95273.80
2019-04-29T15:04:43.272Z,95281.19
2019-04-29T15:07:09.388Z,95279.33
2019-04-29T15:09:46.430Z,95282.92
2019-04-29T15:12:17.241Z,95276.00
2019-04-29T15:14:54.640Z,95284.54
2019-04-29T15:17:33.977Z,95276.58
2019-04-29T15:20:04.752Z,95272.23
2019-04-29T15:22:36.006Z,95271.72
2019-04-29T15:25:02.426Z,95268.48
2019-04-29T15:27:28.450Z,95272.14
2019-04-29T15:29:54.574Z,95272.52
2019-04-29T15:32:22.018Z,95276.09
2019-04-29T15:34:49.808Z,95272.18
2019-04-29T15:37:15.932Z,95268.77
2019-04-29T15:39:46.030Z,95264.79
2019-04-29T15:42:10.150Z,95268.81
2019-04-29T15:44:36.278Z,95268.63
2019-04-29T15:47:02.431Z,95276.64
2019-04-29T15:49:28.557Z,95273.74
2019-04-29T15:51:54.665Z,95269.52
2019-04-29T15:54:20.612Z,95270.91
2019-04-29T15:56:46.734Z,95272.75
2019-04-29T15:59:12.893Z,95271.16
2019-04-29T16:01:41.478Z,95275.72
2019-04-29T16:04:09.052Z,95272.52
2019-04-29T16:06:45.864Z,95268.84
2019-04-29T16:09:50.815Z,95272.00
2019-04-29T16:12:05.029Z,95267.20
2019-04-29T16:14:30.114Z,95264.55
2019-04-29T16:16:56.232Z,95270.44
2019-04-29T16:19:22.359Z,95261.14
2019-04-29T16:21:48.377Z,95264.61
2019-04-29T16:24:26.205Z,95266.21
2019-04-29T16:26:42.547Z,95267.87
2019-04-29T16:29:13.209Z,95266.28
2019-04-29T16:31:39.366Z,95268.19
2019-04-29T16:34:05.506Z,95268.97
2019-04-29T16:36:31.939Z,95269.52
2019-04-29T16:38:58.078Z,95271.11
2019-04-29T16:41:37.964Z,95273.95
2019-04-29T16:44:07.085Z,95267.27
2019-04-29T16:46:37.636Z,95269.92
2019-04-29T16:49:01.543Z,95259.61
2019-04-29T16:51:27.702Z,95264.62
2019-04-29T16:53:53.729Z,95265.84
2019-04-29T16:56:19.957Z,95261.24
2019-04-29T16:58:46.089Z,95266.18
2019-04-29T17:01:12.494Z,95258.14
2019-04-29T17:03:40.912Z,95262.20
2019-04-29T17:06:08.518Z,95260.26
2019-04-29T17:08:36.947Z,95267.78
2019-04-29T17:11:05.393Z,95267.61
2019-04-29T17:13:31.802Z,95270.03
2019-04-29T17:15:58.173Z,95270.61
2019-04-29T17:18:24.754Z,95268.81
2019-04-29T17:20:52.754Z,95265.09
2019-04-29T17:23:24.203Z,95265.41
2019-04-29T17:25:47.367Z,95266.73
2019-04-29T17:28:29.137Z,95268.57
2019-04-29T17:31:14.098Z,95274.63
2019-04-29T17:33:52.274Z,95270.61
2019-04-29T17:36:23.622Z,95274.59
2019-04-29T17:38:50.322Z,95274.02
2019-04-29T17:41:16.597Z,95281.98
2019-04-29T17:43:49.364Z,95280.08
2019-04-29T17:46:20.168Z,95284.06
2019-04-29T17:48:48.596Z,95273.44
2019-04-29T17:51:16.437Z,95277.14
2019-04-29T17:53:47.200Z,95277.14
2019-04-29T17:56:18.244Z,95284.53
2019-04-29T17:58:52.579Z,95281.88
2019-04-29T18:01:31.859Z,95282.12
2019-04-29T18:04:16.698Z,95286.47
2019-04-29T18:06:47.644Z,95284.42
2019-04-29T18:09:15.904Z,95285.20
2019-04-29T18:11:50.547Z,95292.62
2019-04-29T18:14:10.470Z,95293.37
2019-04-29T18:16:39.457Z,95289.86
2019-04-29T18:19:17.634Z,95290.41
2019-04-29T18:21:48.450Z,95289.97
2019-04-29T18:24:34.160Z,95288.06
2019-04-29T18:27:01.750Z,95288.80
2019-04-29T18:29:27.966Z,95287.20
2019-04-29T18:31:55.608Z,95282.41
2019-04-29T18:34:21.814Z,95293.53
2019-04-29T18:36:47.961Z,95291.86
2019-04-29T18:42:38.617Z,95293.14
2019-04-29T18:45:05.211Z,95297.13
2019-04-29T18:47:35.125Z,95297.13
2019-04-29T18:49:59.424Z,95295.26
2019-04-29T18:52:28.204Z,95300.25
2019-04-29T18:54:54.893Z,95299.09
2019-04-29T18:57:28.753Z,95300.41
2019-04-29T18:59:49.180Z,95300.45
2019-04-29T19:02:15.318Z,95304.51
2019-04-29T19:04:53.534Z,95307.39
2019-04-29T19:07:17.236Z,95303.58
2019-04-29T19:09:43.472Z,95298.50
2019-04-29T19:12:09.683Z,95304.09
2019-04-29T19:14:35.804Z,95304.63
2019-04-29T19:17:01.925Z,95310.45
2019-04-29T19:19:30.719Z,95301.66
2019-04-29T19:21:56.109Z,95302.48
2019-04-29T19:24:22.322Z,95305.14
2019-04-29T19:26:48.438Z,95303.53
2019-04-29T19:29:15.631Z,95304.86
2019-04-29T19:31:46.693Z,95310.61
2019-04-29T19:34:14.624Z,95308.50
2019-04-29T19:36:38.185Z,95305.30
2019-04-29T19:39:05.227Z,95298.11
2019-04-29T19:41:31.403Z,95305.49
2019-04-29T19:43:57.517Z,95302.77
2019-04-29T19:46:38.432Z,95300.34
2019-04-29T19:49:08.056Z,95295.55
2019-04-29T19:51:31.777Z,95302.14
2019-04-29T19:53:58.007Z,95296.25
2019-04-29T19:56:25.194Z,95292.73
2019-04-29T19:58:52.504Z,95295.39
2019-04-29T20:01:26.926Z,95304.67
2019-04-29T20:06:37.621Z,95303.58
2019-04-29T20:09:16.131Z,95301.95
2019-04-29T20:11:35.925Z,95303.58
2019-04-29T20:14:06.409Z,95298.50
2019-04-29T20:16:56.027Z,95307.48
2019-04-29T20:19:20.198Z,95303.27
2019-04-29T20:21:42.754Z,95295.31
2019-04-29T20:24:14.777Z,95297.45
2019-04-29T20:26:37.551Z,95299.88
2019-04-29T20:29:15.605Z,95300.62
2019-04-29T20:31:48.592Z,95293.75
2019-04-29T20:34:09.661Z,95299.06
2019-04-29T20:36:41.470Z,95293.48
2019-04-29T20:39:06.625Z,95298.08
2019-04-29T20:41:41.077Z,95293.98
2019-04-29T20:44:05.930Z,95289.19
2019-04-29T20:46:40.169Z,95292.14
2019-04-29T20:48:59.595Z,95286.84
2019-04-29T20:51:32.242Z,95286.89
2019-04-29T20:53:56.044Z,95285.86
2019-04-29T20:56:27.021Z,95286.22
2019-04-29T20:58:50.645Z,95277.44
2019-04-29T21:01:21.357Z,95274.05
2019-04-29T21:03:52.184Z,95275.65
2019-04-29T21:06:15.787Z,95279.94
2019-04-29T21:08:46.712Z,95280.95
2019-04-29T21:11:20.828Z,95285.17
2019-04-29T21:13:48.897Z,95283.49
2019-04-29T21:16:30.711Z,95279.05
2019-04-29T21:18:58.812Z,95281.42
2019-04-29T21:21:25.573Z,95280.61
2019-04-29T21:23:51.863Z,95283.49
2019-04-29T21:26:17.971Z,95280.05
2019-04-29T21:28:45.261Z,95280.05
2019-04-29T21:31:18.579Z,95279.52
2019-04-29T21:33:40.399Z,95273.92
2019-04-29T21:36:26.610Z,95277.60
2019-04-29T21:39:03.321Z,95284.42
2019-04-29T21:41:43.614Z,95284.66
2019-04-29T21:44:09.735Z,95279.58
2019-04-29T21:46:37.348Z,95278.92
2019-04-29T21:49:06.777Z,95278.41
2019-04-29T21:51:31.595Z,95277.09
2019-04-29T21:53:57.622Z,95277.13
2019-04-29T21:56:25.691Z,95278.02
2019-04-29T21:58:51.792Z,95275.87
2019-04-29T22:01:18.608Z,95278.77
2019-04-29T22:03:44.727Z,95273.15
2019-04-29T22:06:10.863Z,95273.46
2019-04-29T22:08:36.989Z,95272.64
2019-04-29T22:11:05.068Z,95276.92
2019-04-29T22:13:35.577Z,95276.70
2019-04-29T22:15:59.405Z,95272.48
2019-04-29T22:18:25.878Z,95263.71
2019-04-29T22:20:52.040Z,95264.22
2019-04-29T22:23:18.196Z,95267.84
2019-04-29T22:25:45.819Z,95260.70
2019-04-29T22:28:16.111Z,95261.30
2019-04-29T22:30:40.419Z,95264.76
2019-04-29T22:33:07.243Z,95262.89
2019-04-29T22:35:39.438Z,95247.67
2019-04-29T22:38:01.305Z,95254.38
2019-04-29T22:40:27.490Z,95258.05
2019-04-29T22:43:14.999Z,95250.41
2019-04-29T22:45:41.605Z,95243.47
2019-04-29T22:48:16.723Z,95238.16
2019-04-29T22:50:38.172Z,95239.21
2019-04-29T22:53:06.055Z,95243.19
2019-04-29T22:55:35.720Z,95237.58
2019-04-29T22:58:00.901Z,95238.67
2019-04-29T23:00:32.836Z,95240.54
2019-04-29T23:02:57.888Z,95237.58
2019-04-29T23:05:28.004Z,95233.91
2019-04-29T23:07:57.082Z,95233.95
2019-04-29T23:10:26.645Z,95231.84
2019-04-29T23:12:53.995Z,95228.14
2019-04-29T23:15:22.731Z,95224.44
2019-04-29T23:17:47.459Z,95223.88
2019-04-29T23:20:28.502Z,95224.67
2019-04-29T23:22:56.841Z,95216.20
2019-04-29T23:25:28.547Z,95215.50
2019-04-29T23:27:53.868Z,95217.18
2019-04-29T23:30:22.109Z,95219.02
2019-04-29T23:32:48.224Z,95208.41
2019-04-29T23:35:14.889Z,95212.38
2019-04-29T23:37:41.032Z,95207.39
2019-04-29T23:40:07.150Z,95199.66
2019-04-29T23:42:33.336Z,95204.97
2019-04-29T23:44:59.352Z,95206.30
2019-04-29T23:47:25.830Z,95200.17
2019-04-29T23:49:52.098Z,95200.69
2019-04-29T23:52:18.246Z,95194.05
2019-04-29T23:54:48.294Z,95190.62
2019-04-29T23:57:23.755Z,95192.45
